sensor_id;sensor_type;location;lat;lon;timestamp;pressure;altitude;pressure_sealevel;temperature;humidity
42125;BME280;27787;44.594;11.046;2022-09-11T00:01:59;100783.72;;;21.72;74.21
42125;BME280;27787;44.594;11.046;2022-09-11T00:04:43;100786.88;;;21.60;74.72
42125;BME280;27787;44.594;11.046;2022-09-11T00:07:28;100789.91;;;21.51;75.72
42125;BME280;27787;44.594;11.046;2022-09-11T00:10:13;100784.88;;;21.42;76.08
42125;BME280;27787;44.594;11.046;2022-09-11T00:12:58;100775.25;;;21.36;76.49
42125;BME280;27787;44.594;11.046;2022-09-11T00:15:44;100777.97;;;21.35;76.03
42125;BME280;27787;44.594;11.046;2022-09-11T00:18:28;100772.56;;;21.36;75.67
42125;BME280;27787;44.594;11.046;2022-09-11T00:21:12;100782.94;;;21.45;75.48
42125;BME280;27787;44.594;11.046;2022-09-11T00:23:56;100784.69;;;21.46;75.09
42125;BME280;27787;44.594;11.046;2022-09-11T00:26:40;100783.59;;;21.52;74.96
42125;BME280;27787;44.594;11.046;2022-09-11T00:29:25;100781.69;;;21.56;74.55
42125;BME280;27787;44.594;11.046;2022-09-11T00:32:10;100779.66;;;21.62;74.50
42125;BME280;27787;44.594;11.046;2022-09-11T00:34:54;100787.41;;;21.70;73.94
42125;BME280;27787;44.594;11.046;2022-09-11T00:37:39;100783.63;;;21.75;73.56
42125;BME280;27787;44.594;11.046;2022-09-11T00:40:23;100787.00;;;21.81;72.82
42125;BME280;27787;44.594;11.046;2022-09-11T00:43:08;100793.25;;;21.81;72.48
42125;BME280;27787;44.594;11.046;2022-09-11T00:46:00;100792.84;;;21.68;73.09
42125;BME280;27787;44.594;11.046;2022-09-11T00:48:46;100789.97;;;21.49;73.82
42125;BME280;27787;44.594;11.046;2022-09-11T00:51:34;100787.84;;;21.34;74.85
42125;BME280;27787;44.594;11.046;2022-09-11T00:54:29;100789.16;;;21.23;75.23
42125;BME280;27787;44.594;11.046;2022-09-11T00:57:17;100792.03;;;21.16;75.80
42125;BME280;27787;44.594;11.046;2022-09-11T01:00:06;100798.34;;;21.15;76.39
42125;BME280;27787;44.594;11.046;2022-09-11T01:02:53;100797.16;;;21.24;76.39
42125;BME280;27787;44.594;11.046;2022-09-11T01:05:39;100794.94;;;21.35;75.81
42125;BME280;27787;44.594;11.046;2022-09-11T01:08:24;100789.44;;;21.40;75.64
42125;BME280;27787;44.594;11.046;2022-09-11T01:17:19;100796.50;;;21.42;74.15
42125;BME280;27787;44.594;11.046;2022-09-11T01:29:51;100813.25;;;21.24;76.76
42125;BME280;27787;44.594;11.046;2022-09-11T01:35:55;100817.94;;;21.17;79.69
42125;BME280;27787;44.594;11.046;2022-09-11T01:39:00;100828.13;;;21.08;81.42
42125;BME280;27787;44.594;11.046;2022-09-11T01:41:51;100831.88;;;21.04;83.70
42125;BME280;27787;44.594;11.046;2022-09-11T01:44:50;100818.56;;;21.01;85.04
42125;BME280;27787;44.594;11.046;2022-09-11T01:47:36;100831.97;;;21.01;85.90
42125;BME280;27787;44.594;11.046;2022-09-11T01:50:23;100835.66;;;20.98;86.71
42125;BME280;27787;44.594;11.046;2022-09-11T01:53:10;100840.16;;;20.96;87.38
42125;BME280;27787;44.594;11.046;2022-09-11T01:56:02;100826.50;;;21.04;87.25
42125;BME280;27787;44.594;11.046;2022-09-11T01:58:56;100826.13;;;21.14;86.87
42125;BME280;27787;44.594;11.046;2022-09-11T02:01:50;100823.31;;;21.17;86.17
42125;BME280;27787;44.594;11.046;2022-09-11T02:04:48;100811.41;;;21.26;85.82
42125;BME280;27787;44.594;11.046;2022-09-11T02:07:38;100829.88;;;21.35;83.66
42125;BME280;27787;44.594;11.046;2022-09-11T02:10:39;100825.44;;;21.34;83.87
42125;BME280;27787;44.594;11.046;2022-09-11T02:13:45;100823.59;;;21.36;83.38
42125;BME280;27787;44.594;11.046;2022-09-11T02:17:02;100821.59;;;21.41;82.49
42125;BME280;27787;44.594;11.046;2022-09-11T02:19:53;100826.03;;;21.42;81.81
42125;BME280;27787;44.594;11.046;2022-09-11T02:22:40;100845.06;;;21.36;81.34
42125;BME280;27787;44.594;11.046;2022-09-11T02:25:25;100845.47;;;21.26;81.43
42125;BME280;27787;44.594;11.046;2022-09-11T02:28:13;100852.09;;;21.14;82.10
42125;BME280;27787;44.594;11.046;2022-09-11T02:30:58;100849.41;;;21.14;82.48
42125;BME280;27787;44.594;11.046;2022-09-11T02:33:42;100844.81;;;21.17;82.33
42125;BME280;27787;44.594;11.046;2022-09-11T02:36:38;100852.09;;;21.14;81.03
42125;BME280;27787;44.594;11.046;2022-09-11T02:43:03;100844.66;;;20.96;81.82
42125;BME280;27787;44.594;11.046;2022-09-11T02:49:23;100833.31;;;21.14;80.26
42125;BME280;27787;44.594;11.046;2022-09-11T02:55:23;100845.97;;;21.35;78.24
42125;BME280;27787;44.594;11.046;2022-09-11T02:58:18;100845.84;;;21.40;77.09
42125;BME280;27787;44.594;11.046;2022-09-11T03:01:07;100851.34;;;21.35;76.78
42125;BME280;27787;44.594;11.046;2022-09-11T03:03:52;100856.13;;;21.27;77.31
42125;BME280;27787;44.594;11.046;2022-09-11T03:06:36;100856.28;;;21.23;77.62
42125;BME280;27787;44.594;11.046;2022-09-11T03:09:21;100842.94;;;21.19;77.94
42125;BME280;27787;44.594;11.046;2022-09-11T03:12:10;100840.31;;;21.18;77.78
42125;BME280;27787;44.594;11.046;2022-09-11T03:14:55;100842.19;;;21.16;77.65
42125;BME280;27787;44.594;11.046;2022-09-11T03:17:40;100849.53;;;21.11;77.55
42125;BME280;27787;44.594;11.046;2022-09-11T03:20:25;100847.78;;;21.10;77.98
42125;BME280;27787;44.594;11.046;2022-09-11T03:23:09;100841.50;;;21.09;77.70
42125;BME280;27787;44.594;11.046;2022-09-11T03:25:54;100843.41;;;21.06;77.46
42125;BME280;27787;44.594;11.046;2022-09-11T03:28:39;100849.94;;;20.99;77.39
42125;BME280;27787;44.594;11.046;2022-09-11T03:31:24;100841.91;;;20.99;78.31
42125;BME280;27787;44.594;11.046;2022-09-11T03:34:08;100833.03;;;20.95;77.66
42125;BME280;27787;44.594;11.046;2022-09-11T03:36:54;100844.00;;;20.89;78.18
42125;BME280;27787;44.594;11.046;2022-09-11T03:39:38;100851.53;;;20.78;78.40
42125;BME280;27787;44.594;11.046;2022-09-11T03:42:23;100854.31;;;20.75;79.25
42125;BME280;27787;44.594;11.046;2022-09-11T03:45:07;100866.03;;;20.72;80.00
42125;BME280;27787;44.594;11.046;2022-09-11T03:47:52;100857.13;;;20.72;79.11
42125;BME280;27787;44.594;11.046;2022-09-11T03:50:36;100863.50;;;20.68;79.59
42125;BME280;27787;44.594;11.046;2022-09-11T03:53:21;100869.03;;;20.63;79.58
42125;BME280;27787;44.594;11.046;2022-09-11T03:56:05;100864.75;;;20.57;80.06
42125;BME280;27787;44.594;11.046;2022-09-11T03:58:57;100866.69;;;20.52;79.65
42125;BME280;27787;44.594;11.046;2022-09-11T04:01:43;100869.25;;;20.55;80.39
42125;BME280;27787;44.594;11.046;2022-09-11T04:04:27;100872.81;;;20.56;79.75
42125;BME280;27787;44.594;11.046;2022-09-11T04:07:13;100872.91;;;20.53;79.10
42125;BME280;27787;44.594;11.046;2022-09-11T04:09:57;100874.81;;;20.49;79.54
42125;BME280;27787;44.594;11.046;2022-09-11T04:12:42;100875.75;;;20.48;79.61
42125;BME280;27787;44.594;11.046;2022-09-11T04:15:27;100877.41;;;20.52;79.77
42125;BME280;27787;44.594;11.046;2022-09-11T04:18:12;100880.03;;;20.54;79.01
42125;BME280;27787;44.594;11.046;2022-09-11T04:20:57;100891.56;;;20.57;78.96
42125;BME280;27787;44.594;11.046;2022-09-11T04:23:41;100888.88;;;20.57;78.57
42125;BME280;27787;44.594;11.046;2022-09-11T04:26:30;100888.03;;;20.55;78.19
42125;BME280;27787;44.594;11.046;2022-09-11T04:29:26;100893.78;;;20.43;78.64
42125;BME280;27787;44.594;11.046;2022-09-11T04:32:12;100895.09;;;20.28;79.31
42125;BME280;27787;44.594;11.046;2022-09-11T04:34:57;100907.88;;;20.20;79.91
42125;BME280;27787;44.594;11.046;2022-09-11T04:37:42;100913.34;;;20.16;80.41
42125;BME280;27787;44.594;11.046;2022-09-11T04:40:26;100918.81;;;20.13;80.11
42125;BME280;27787;44.594;11.046;2022-09-11T04:43:11;100914.44;;;20.10;80.21
42125;BME280;27787;44.594;11.046;2022-09-11T04:46:09;100911.69;;;20.12;80.27
42125;BME280;27787;44.594;11.046;2022-09-11T04:48:56;100926.69;;;20.17;80.31
42125;BME280;27787;44.594;11.046;2022-09-11T04:51:46;100928.41;;;20.21;79.34
42125;BME280;27787;44.594;11.046;2022-09-11T04:54:32;100925.75;;;20.20;79.75
42125;BME280;27787;44.594;11.046;2022-09-11T04:57:17;100921.31;;;20.19;79.57
42125;BME280;27787;44.594;11.046;2022-09-11T05:00:02;100915.09;;;20.18;79.73
42125;BME280;27787;44.594;11.046;2022-09-11T05:02:46;100914.19;;;20.18;79.58
42125;BME280;27787;44.594;11.046;2022-09-11T05:05:31;100916.91;;;20.16;79.86
42125;BME280;27787;44.594;11.046;2022-09-11T05:08:16;100917.78;;;20.17;80.13
42125;BME280;27787;44.594;11.046;2022-09-11T05:11:05;100921.38;;;20.16;79.81
42125;BME280;27787;44.594;11.046;2022-09-11T05:13:49;100925.97;;;20.12;79.94
42125;BME280;27787;44.594;11.046;2022-09-11T05:16:35;100929.63;;;20.10;78.87
42125;BME280;27787;44.594;11.046;2022-09-11T05:19:20;100936.94;;;20.03;78.87
42125;BME280;27787;44.594;11.046;2022-09-11T05:22:05;100935.28;;;19.99;77.28
42125;BME280;27787;44.594;11.046;2022-09-11T05:24:51;100938.03;;;19.97;75.63
42125;BME280;27787;44.594;11.046;2022-09-11T05:27:36;100949.63;;;19.98;74.89
42125;BME280;27787;44.594;11.046;2022-09-11T05:30:21;100945.91;;;20.02;74.94
42125;BME280;27787;44.594;11.046;2022-09-11T05:33:05;100943.03;;;20.10;75.04
42125;BME280;27787;44.594;11.046;2022-09-11T05:35:51;100937.56;;;20.13;74.73
42125;BME280;27787;44.594;11.046;2022-09-11T05:38:40;100939.44;;;20.11;74.22
42125;BME280;27787;44.594;11.046;2022-09-11T05:41:25;100932.13;;;20.16;73.62
42125;BME280;27787;44.594;11.046;2022-09-11T05:44:10;100936.69;;;20.12;73.26
42125;BME280;27787;44.594;11.046;2022-09-11T05:46:55;100935.03;;;20.08;73.14
42125;BME280;27787;44.594;11.046;2022-09-11T05:49:41;100949.44;;;20.04;73.59
42125;BME280;27787;44.594;11.046;2022-09-11T05:52:26;100944.06;;;20.06;73.00
42125;BME280;27787;44.594;11.046;2022-09-11T05:55:11;100958.34;;;20.06;73.58
42125;BME280;27787;44.594;11.046;2022-09-11T05:57:56;100952.78;;;20.12;73.74
42125;BME280;27787;44.594;11.046;2022-09-11T06:00:41;100966.13;;;20.14;73.75
42125;BME280;27787;44.594;11.046;2022-09-11T06:03:29;100975.84;;;20.18;74.30
42125;BME280;27787;44.594;11.046;2022-09-11T06:06:18;100972.13;;;20.23;74.36
42125;BME280;27787;44.594;11.046;2022-09-11T06:09:06;100982.59;;;20.31;74.32
42125;BME280;27787;44.594;11.046;2022-09-11T06:11:50;100980.56;;;20.39;74.79
42125;BME280;27787;44.594;11.046;2022-09-11T06:14:34;100977.63;;;20.50;74.65
42125;BME280;27787;44.594;11.046;2022-09-11T06:17:21;100984.31;;;20.65;74.39
42125;BME280;27787;44.594;11.046;2022-09-11T06:20:08;100982.34;;;20.71;74.03
42125;BME280;27787;44.594;11.046;2022-09-11T06:22:56;100973.41;;;20.71;74.75
42125;BME280;27787;44.594;11.046;2022-09-11T06:25:43;100973.97;;;20.80;75.06
42125;BME280;27787;44.594;11.046;2022-09-11T06:28:27;100980.03;;;20.87;74.74
42125;BME280;27787;44.594;11.046;2022-09-11T06:31:14;100979.84;;;20.93;74.81
42125;BME280;27787;44.594;11.046;2022-09-11T06:34:03;100970.78;;;20.97;75.35
42125;BME280;27787;44.594;11.046;2022-09-11T06:36:47;100982.19;;;21.04;75.11
42125;BME280;27787;44.594;11.046;2022-09-11T06:39:32;100971.34;;;21.07;75.28
42125;BME280;27787;44.594;11.046;2022-09-11T06:42:18;100971.16;;;21.13;75.06
42125;BME280;27787;44.594;11.046;2022-09-11T06:45:03;100972.09;;;21.12;74.76
42125;BME280;27787;44.594;11.046;2022-09-11T06:47:48;100979.31;;;21.10;74.78
42125;BME280;27787;44.594;11.046;2022-09-11T06:50:37;100981.16;;;21.08;75.56
42125;BME280;27787;44.594;11.046;2022-09-11T06:53:24;100981.09;;;21.09;75.00
42125;BME280;27787;44.594;11.046;2022-09-11T06:56:15;100975.59;;;21.14;75.11
42125;BME280;27787;44.594;11.046;2022-09-11T06:59:03;100975.59;;;21.14;75.44
42125;BME280;27787;44.594;11.046;2022-09-11T07:01:49;100974.72;;;21.13;75.92
42125;BME280;27787;44.594;11.046;2022-09-11T07:04:35;100969.13;;;21.19;76.08
42125;BME280;27787;44.594;11.046;2022-09-11T07:07:19;100959.13;;;21.25;75.65
42125;BME280;27787;44.594;11.046;2022-09-11T07:10:04;100968.81;;;21.30;76.09
42125;BME280;27787;44.594;11.046;2022-09-11T07:12:53;100973.06;;;21.37;76.41
42125;BME280;27787;44.594;11.046;2022-09-11T07:15:38;100984.47;;;21.44;76.49
42125;BME280;27787;44.594;11.046;2022-09-11T07:18:24;100978.16;;;21.45;76.19
42125;BME280;27787;44.594;11.046;2022-09-11T07:21:14;100974.44;;;21.49;76.34
42125;BME280;27787;44.594;11.046;2022-09-11T07:24:00;100970.66;;;21.55;76.39
42125;BME280;27787;44.594;11.046;2022-09-11T07:26:50;100963.44;;;21.57;76.44
42125;BME280;27787;44.594;11.046;2022-09-11T07:30:01;100964.19;;;21.60;76.79
42125;BME280;27787;44.594;11.046;2022-09-11T07:32:50;100963.31;;;21.60;77.24
42125;BME280;27787;44.594;11.046;2022-09-11T07:35:36;100952.50;;;21.61;77.71
42125;BME280;27787;44.594;11.046;2022-09-11T07:38:20;100961.25;;;21.68;77.44
42125;BME280;27787;44.594;11.046;2022-09-11T07:41:06;100960.19;;;21.72;76.93
42125;BME280;27787;44.594;11.046;2022-09-11T07:43:57;100962.78;;;21.75;76.86
42125;BME280;27787;44.594;11.046;2022-09-11T07:46:44;100964.44;;;21.79;76.40
42125;BME280;27787;44.594;11.046;2022-09-11T07:49:30;100979.50;;;21.83;76.18
42125;BME280;27787;44.594;11.046;2022-09-11T07:52:15;100983.81;;;21.87;76.51
42125;BME280;27787;44.594;11.046;2022-09-11T07:55:07;100982.81;;;21.91;76.83
42125;BME280;27787;44.594;11.046;2022-09-11T07:57:52;100982.69;;;21.94;76.87
42125;BME280;27787;44.594;11.046;2022-09-11T08:00:37;100988.75;;;21.99;76.34
42125;BME280;27787;44.594;11.046;2022-09-11T08:03:31;101002.78;;;22.09;75.62
42125;BME280;27787;44.594;11.046;2022-09-11T08:06:16;100994.47;;;22.17;75.09
42125;BME280;27787;44.594;11.046;2022-09-11T08:09:06;100991.66;;;22.20;74.29
42125;BME280;27787;44.594;11.046;2022-09-11T08:11:53;101003.34;;;22.19;74.15
42125;BME280;27787;44.594;11.046;2022-09-11T08:14:41;101005.03;;;22.21;74.96
42125;BME280;27787;44.594;11.046;2022-09-11T08:17:32;101008.53;;;22.23;74.47
42125;BME280;27787;44.594;11.046;2022-09-11T08:20:24;100995.88;;;22.27;74.46
42125;BME280;27787;44.594;11.046;2022-09-11T08:23:09;100998.31;;;22.33;74.79
42125;BME280;27787;44.594;11.046;2022-09-11T08:25:54;100998.97;;;22.40;74.12
42125;BME280;27787;44.594;11.046;2022-09-11T08:28:41;101013.06;;;22.46;73.33
42125;BME280;27787;44.594;11.046;2022-09-11T08:31:27;101007.56;;;22.49;73.09
42125;BME280;27787;44.594;11.046;2022-09-11T08:34:14;101007.56;;;22.49;72.70
42125;BME280;27787;44.594;11.046;2022-09-11T08:36:59;101005.69;;;22.51;72.79
42125;BME280;27787;44.594;11.046;2022-09-11T08:39:46;101009.22;;;22.53;72.20
42125;BME280;27787;44.594;11.046;2022-09-11T08:42:30;101014.47;;;22.56;72.38
42125;BME280;27787;44.594;11.046;2022-09-11T08:45:18;101008.09;;;22.59;72.44
42125;BME280;27787;44.594;11.046;2022-09-11T08:48:07;101017.75;;;22.64;71.85
42125;BME280;27787;44.594;11.046;2022-09-11T08:50:54;101016.78;;;22.65;70.86
42125;BME280;27787;44.594;11.046;2022-09-11T08:53:40;101021.28;;;22.66;71.31
42125;BME280;27787;44.594;11.046;2022-09-11T08:56:28;101021.16;;;22.70;71.60
42125;BME280;27787;44.594;11.046;2022-09-11T08:59:23;101025.53;;;22.72;71.56
42125;BME280;27787;44.594;11.046;2022-09-11T09:06:10;101017.97;;;22.82;70.60
42125;BME280;27787;44.594;11.046;2022-09-11T09:16:55;101015.59;;;22.98;70.06
42125;BME280;27787;44.594;11.046;2022-09-11T09:19:50;101018.16;;;23.01;68.41
42125;BME280;27787;44.594;11.046;2022-09-11T09:22:45;101023.47;;;23.02;68.37
42125;BME280;27787;44.594;11.046;2022-09-11T09:25:37;101027.97;;;23.02;68.59
42125;BME280;27787;44.594;11.046;2022-09-11T09:28:34;101023.47;;;23.02;67.26
42125;BME280;27787;44.594;11.046;2022-09-11T09:31:28;101024.41;;;23.01;67.46
42125;BME280;27787;44.594;11.046;2022-09-11T09:34:20;101028.84;;;23.02;66.72
42125;BME280;27787;44.594;11.046;2022-09-11T09:37:14;101029.63;;;23.06;67.10
42125;BME280;27787;44.594;11.046;2022-09-11T09:40:13;101020.41;;;23.11;66.51
42125;BME280;27787;44.594;11.046;2022-09-11T09:44:25;101024.66;;;23.17;66.17
42125;BME280;27787;44.594;11.046;2022-09-11T09:46:52;101022.97;;;23.14;64.52
42125;BME280;27787;44.594;11.046;2022-09-11T09:49:39;101018.66;;;23.10;63.82
42125;BME280;27787;44.594;11.046;2022-09-11T09:52:30;101011.16;;;23.18;64.73
42125;BME280;27787;44.594;11.046;2022-09-11T09:55:17;101002.94;;;23.21;64.64
42125;BME280;27787;44.594;11.046;2022-09-11T09:58:03;101002.81;;;23.24;64.18
42125;BME280;27787;44.594;11.046;2022-09-11T10:00:47;101006.25;;;23.28;64.44
42125;BME280;27787;44.594;11.046;2022-09-11T10:03:32;101003.56;;;23.28;63.72
42125;BME280;27787;44.594;11.046;2022-09-11T10:06:20;101006.97;;;23.33;63.87
42125;BME280;27787;44.594;11.046;2022-09-11T10:09:05;101005.81;;;23.39;63.58
42125;BME280;27787;44.594;11.046;2022-09-11T10:11:51;101004.69;;;23.44;63.25
42125;BME280;27787;44.594;11.046;2022-09-11T10:15:00;100987.59;;;23.45;62.75
42125;BME280;27787;44.594;11.046;2022-09-11T10:17:45;100994.72;;;23.46;62.97
42125;BME280;27787;44.594;11.046;2022-09-11T10:20:29;100980.22;;;23.49;62.73
42125;BME280;27787;44.594;11.046;2022-09-11T10:23:26;100981.84;;;23.53;62.53
42125;BME280;27787;44.594;11.046;2022-09-11T10:29:21;100979.75;;;23.61;61.81
42125;BME280;27787;44.594;11.046;2022-09-11T10:32:15;100975.16;;;23.63;61.99
42125;BME280;27787;44.594;11.046;2022-09-11T10:35:07;100983.09;;;23.66;62.13
42125;BME280;27787;44.594;11.046;2022-09-11T10:41:07;100980.28;;;23.69;61.88
42125;BME280;27787;44.594;11.046;2022-09-11T10:43:59;100978.44;;;23.70;61.28
42125;BME280;27787;44.594;11.046;2022-09-11T10:47:02;100977.72;;;23.66;60.27
42125;BME280;27787;44.594;11.046;2022-09-11T10:49:47;100976.84;;;23.66;60.76
42125;BME280;27787;44.594;11.046;2022-09-11T10:52:31;100972.31;;;23.66;60.67
42125;BME280;27787;44.594;11.046;2022-09-11T10:55:16;100979.34;;;23.70;60.65
42125;BME280;27787;44.594;11.046;2022-09-11T10:58:08;100977.56;;;23.69;59.72
42125;BME280;27787;44.594;11.046;2022-09-11T11:00:53;100986.50;;;23.71;59.86
42125;BME280;27787;44.594;11.046;2022-09-11T11:03:38;100984.59;;;23.73;59.92
42125;BME280;27787;44.594;11.046;2022-09-11T11:06:35;100982.50;;;23.80;60.22
42125;BME280;27787;44.594;11.046;2022-09-11T11:09:36;100983.06;;;23.88;60.52
42125;BME280;27787;44.594;11.046;2022-09-11T11:12:49;100975.63;;;23.93;59.84
42125;BME280;27787;44.594;11.046;2022-09-11T11:31:55;100972.75;;;23.98;58.75
42125;BME280;27787;44.594;11.046;2022-09-11T11:37:46;100973.06;;;24.10;57.62
42125;BME280;27787;44.594;11.046;2022-09-11T11:40:34;100976.41;;;24.16;57.30
42125;BME280;27787;44.594;11.046;2022-09-11T11:43:23;100979.78;;;24.21;57.36
42125;BME280;27787;44.594;11.046;2022-09-11T11:46:33;100972.22;;;24.29;57.11
42125;BME280;27787;44.594;11.046;2022-09-11T11:49:46;100969.59;;;24.27;56.08
42125;BME280;27787;44.594;11.046;2022-09-11T11:53:31;100969.47;;;24.30;56.35
42125;BME280;27787;44.594;11.046;2022-09-11T11:56:13;100976.63;;;24.31;56.33
42125;BME280;27787;44.594;11.046;2022-09-11T12:04:52;100965.94;;;24.28;57.46
42125;BME280;27787;44.594;11.046;2022-09-11T12:07:38;100963.25;;;24.28;57.55
42125;BME280;27787;44.594;11.046;2022-09-11T12:10:33;100968.59;;;24.30;57.38
42125;BME280;27787;44.594;11.046;2022-09-11T12:13:18;100952.41;;;24.30;56.85
42125;BME280;27787;44.594;11.046;2022-09-11T12:16:17;100957.72;;;24.31;57.14
42125;BME280;27787;44.594;11.046;2022-09-11T12:30:23;100934.97;;;24.56;56.56
42125;BME280;27787;44.594;11.046;2022-09-11T12:36:31;100929.16;;;24.65;56.34
42125;BME280;27787;44.594;11.046;2022-09-11T12:39:28;100922.50;;;24.72;55.20
42125;BME280;27787;44.594;11.046;2022-09-11T12:45:30;100922.38;;;24.75;55.12
42125;BME280;27787;44.594;11.046;2022-09-11T12:48:16;100914.97;;;24.79;54.73
42125;BME280;27787;44.594;11.046;2022-09-11T12:51:04;100922.03;;;24.81;54.62
42125;BME280;27787;44.594;11.046;2022-09-11T12:53:53;100929.13;;;24.84;55.02
42125;BME280;27787;44.594;11.046;2022-09-11T12:56:49;100920.72;;;24.90;54.30
42125;BME280;27787;44.594;11.046;2022-09-11T12:59:37;100918.66;;;24.95;54.38
42125;BME280;27787;44.594;11.046;2022-09-11T13:05:30;100910.63;;;24.93;53.57
42125;BME280;27787;44.594;11.046;2022-09-11T13:08:18;100904.28;;;24.94;53.76
42125;BME280;27787;44.594;11.046;2022-09-11T13:11:38;100902.53;;;24.93;53.56
42125;BME280;27787;44.594;11.046;2022-09-11T13:17:14;100897.19;;;25.11;53.44
42125;BME280;27787;44.594;11.046;2022-09-11T13:22:46;100903.78;;;25.22;52.78
42125;BME280;27787;44.594;11.046;2022-09-11T13:25:31;100890.97;;;25.26;52.37
42125;BME280;27787;44.594;11.046;2022-09-11T13:28:16;100890.34;;;25.38;52.20
42125;BME280;27787;44.594;11.046;2022-09-11T13:31:01;100880.13;;;25.45;52.05
42125;BME280;27787;44.594;11.046;2022-09-11T13:33:49;100884.31;;;25.50;51.44
42125;BME280;27787;44.594;11.046;2022-09-11T13:36:35;100879.22;;;25.62;51.32
42125;BME280;27787;44.594;11.046;2022-09-11T13:39:20;100885.19;;;25.68;50.99
42125;BME280;27787;44.594;11.046;2022-09-11T13:42:11;100881.38;;;25.72;50.35
42125;BME280;27787;44.594;11.046;2022-09-11T13:45:00;100884.00;;;25.74;50.06
42125;BME280;27787;44.594;11.046;2022-09-11T13:47:45;100875.19;;;25.70;50.51
42125;BME280;27787;44.594;11.046;2022-09-11T13:50:30;100867.53;;;25.78;48.81
42125;BME280;27787;44.594;11.046;2022-09-11T13:53:19;100858.38;;;25.81;49.06
42125;BME280;27787;44.594;11.046;2022-09-11T13:56:04;100859.47;;;25.77;49.36
42125;BME280;27787;44.594;11.046;2022-09-11T13:58:48;100860.44;;;25.76;49.56
42125;BME280;27787;44.594;11.046;2022-09-11T14:01:32;100854.91;;;25.79;48.95
42125;BME280;27787;44.594;11.046;2022-09-11T14:04:18;100850.28;;;25.81;49.05
42125;BME280;27787;44.594;11.046;2022-09-11T14:07:14;100861.69;;;25.86;49.45
42125;BME280;27787;44.594;11.046;2022-09-11T14:10:02;100854.13;;;25.93;49.74
42125;BME280;27787;44.594;11.046;2022-09-11T14:19:00;100844.72;;;26.15;49.72
42125;BME280;27787;44.594;11.046;2022-09-11T14:21:50;100837.22;;;26.21;49.39
42125;BME280;27787;44.594;11.046;2022-09-11T14:24:34;100842.09;;;26.30;48.73
42125;BME280;27787;44.594;11.046;2022-09-11T14:33:21;100832.38;;;26.59;48.22
42125;BME280;27787;44.594;11.046;2022-09-11T14:36:16;100809.75;;;26.60;47.74
42125;BME280;27787;44.594;11.046;2022-09-11T14:39:02;100822.22;;;26.62;47.17
42125;BME280;27787;44.594;11.046;2022-09-11T14:41:47;100812.25;;;26.63;46.30
42125;BME280;27787;44.594;11.046;2022-09-11T14:44:33;100810.25;;;26.66;46.17
42125;BME280;27787;44.594;11.046;2022-09-11T14:47:20;100806.47;;;26.69;46.54
42125;BME280;27787;44.594;11.046;2022-09-11T14:50:06;100801.00;;;26.70;45.79
42125;BME280;27787;44.594;11.046;2022-09-11T14:52:55;100809.59;;;26.77;44.64
42125;BME280;27787;44.594;11.046;2022-09-11T14:55:39;100806.16;;;26.89;43.70
42125;BME280;27787;44.594;11.046;2022-09-11T14:58:24;100801.44;;;26.93;44.25
42125;BME280;27787;44.594;11.046;2022-09-11T15:01:10;100803.03;;;26.97;44.80
42125;BME280;27787;44.594;11.046;2022-09-11T15:03:56;100795.56;;;27.00;44.51
42125;BME280;27787;44.594;11.046;2022-09-11T15:06:40;100798.13;;;27.03;42.05
42125;BME280;27787;44.594;11.046;2022-09-11T15:09:24;100796.28;;;27.04;42.32
42125;BME280;27787;44.594;11.046;2022-09-11T15:12:09;100798.03;;;27.05;42.69
42125;BME280;27787;44.594;11.046;2022-09-11T15:14:54;100798.03;;;27.05;42.91
42125;BME280;27787;44.594;11.046;2022-09-11T15:17:39;100794.19;;;27.09;43.26
42125;BME280;27787;44.594;11.046;2022-09-11T15:20:23;100797.47;;;27.14;43.54
42125;BME280;27787;44.594;11.046;2022-09-11T15:23:09;100795.44;;;27.18;43.08
42125;BME280;27787;44.594;11.046;2022-09-11T15:25:58;100803.56;;;27.18;43.92
42125;BME280;27787;44.594;11.046;2022-09-11T15:28:44;100800.75;;;27.19;44.11
42125;BME280;27787;44.594;11.046;2022-09-11T15:31:32;100795.53;;;27.16;44.19
42125;BME280;27787;44.594;11.046;2022-09-11T15:34:16;100793.69;;;27.17;44.55
42125;BME280;27787;44.594;11.046;2022-09-11T15:37:01;100790.78;;;27.20;44.36
42125;BME280;27787;44.594;11.046;2022-09-11T15:39:48;100787.91;;;27.23;44.50
42125;BME280;27787;44.594;11.046;2022-09-11T15:42:33;100787.03;;;27.22;44.06
42125;BME280;27787;44.594;11.046;2022-09-11T15:45:17;100789.91;;;27.19;44.10
42125;BME280;27787;44.594;11.046;2022-09-11T15:48:02;100782.75;;;27.18;44.06
42125;BME280;27787;44.594;11.046;2022-09-11T15:51:00;100785.84;;;27.12;44.29
42125;BME280;27787;44.594;11.046;2022-09-11T15:53:44;100784.47;;;27.05;44.76
42125;BME280;27787;44.594;11.046;2022-09-11T15:56:29;100778.63;;;26.97;45.03
42125;BME280;27787;44.594;11.046;2022-09-11T15:59:14;100775.59;;;26.87;45.37
42125;BME280;27787;44.594;11.046;2022-09-11T16:01:58;100778.84;;;26.78;45.57
42125;BME280;27787;44.594;11.046;2022-09-11T16:04:43;100782.72;;;26.74;45.59
42125;BME280;27787;44.594;11.046;2022-09-11T16:07:27;100774.88;;;26.69;45.09
42125;BME280;27787;44.594;11.046;2022-09-11T16:10:11;100772.31;;;26.66;45.26
42125;BME280;27787;44.594;11.046;2022-09-11T16:12:55;100768.06;;;26.62;45.31
42125;BME280;27787;44.594;11.046;2022-09-11T16:15:40;100772.94;;;26.56;45.10
42125;BME280;27787;44.594;11.046;2022-09-11T16:18:24;100775.06;;;26.51;45.67
42125;BME280;27787;44.594;11.046;2022-09-11T16:21:09;100773.41;;;26.48;45.84